createdAt,value
2017-04-30T00:00:12.550Z,8.60
2017-04-30T00:01:10.234Z,7.75
2017-04-30T00:02:07.677Z,7.85
2017-04-30T00:03:05.451Z,8.13
2017-04-30T00:04:03.089Z,7.12
2017-04-30T00:05:00.720Z,7.30
2017-04-30T00:05:58.159Z,8.17
2017-04-30T00:06:55.829Z,7.37
2017-04-30T00:07:53.219Z,7.92
2017-04-30T00:08:50.600Z,7.65
2017-04-30T00:09:48.037Z,9.05
2017-04-30T00:10:45.680Z,8.15
2017-04-30T00:11:43.061Z,7.32
2017-04-30T00:12:41.020Z,7.68
2017-04-30T00:13:38.486Z,8.90
2017-04-30T00:14:35.895Z,7.12
2017-04-30T00:15:33.280Z,8.18
2017-04-30T00:16:30.696Z,8.38
2017-04-30T00:17:28.098Z,7.72
2017-04-30T00:18:25.817Z,7.35
2017-04-30T00:19:23.254Z,8.22
2017-04-30T00:20:20.664Z,8.82
2017-04-30T00:21:18.305Z,7.75
2017-04-30T00:22:16.382Z,7.98
2017-04-30T00:23:13.810Z,8.75
2017-04-30T00:24:11.492Z,7.45
2017-04-30T00:25:08.901Z,7.78
2017-04-30T00:26:06.334Z,8.88
2017-04-30T00:27:03.744Z,8.87
2017-04-30T00:28:01.123Z,7.73
2017-04-30T00:28:58.524Z,9.68
2017-04-30T00:29:56.538Z,8.00
2017-04-30T00:30:53.936Z,8.00
2017-04-30T00:31:51.320Z,7.67
2017-04-30T00:32:48.709Z,8.62
2017-04-30T00:33:46.115Z,8.85
2017-04-30T00:34:43.510Z,7.40
2017-04-30T00:35:41.411Z,8.43
2017-04-30T00:36:38.826Z,8.38
2017-04-30T00:37:36.211Z,7.92
2017-04-30T00:38:33.606Z,9.05
2017-04-30T00:39:31.001Z,8.70
2017-04-30T00:40:28.444Z,7.90
2017-04-30T00:41:26.424Z,7.82
2017-04-30T00:42:23.896Z,8.13
2017-04-30T00:43:21.322Z,7.93
2017-04-30T00:44:18.730Z,7.52
2017-04-30T00:45:16.145Z,7.97
2017-04-30T00:46:13.544Z,8.20
2017-04-30T00:47:11.275Z,8.13
2017-04-30T00:48:09.072Z,7.68
2017-04-30T00:49:06.735Z,7.90
2017-04-30T00:50:04.361Z,8.60
2017-04-30T00:51:01.777Z,7.48
2017-04-30T00:51:59.416Z,7.07
2017-04-30T00:52:57.099Z,7.25
2017-04-30T00:53:54.512Z,9.00
2017-04-30T00:54:52.244Z,7.35
2017-04-30T00:55:49.644Z,7.28
2017-04-30T00:56:47.138Z,7.13
2017-04-30T00:57:44.546Z,7.93
2017-04-30T00:58:42.233Z,7.42
2017-04-30T00:59:39.633Z,7.88
2017-04-30T01:00:37.022Z,7.63
2017-04-30T01:01:34.736Z,7.47
2017-04-30T01:02:32.210Z,7.17
2017-04-30T01:03:29.632Z,7.18
2017-04-30T01:04:27.312Z,7.32
2017-04-30T01:05:25.059Z,7.90
2017-04-30T01:06:22.457Z,8.28
2017-04-30T01:07:19.868Z,8.37
2017-04-30T01:08:17.291Z,7.98
2017-04-30T01:09:14.671Z,8.18
2017-04-30T01:10:12.353Z,7.43
2017-04-30T01:11:09.823Z,7.83
2017-04-30T01:12:07.633Z,8.53
2017-04-30T01:13:05.031Z,8.67
2017-04-30T01:14:02.677Z,8.32
2017-04-30T01:15:00.333Z,8.32
2017-04-30T01:15:58.011Z,8.32
2017-04-30T01:16:55.437Z,8.10
2017-04-30T01:17:52.835Z,8.38
2017-04-30T01:18:50.249Z,8.05
2017-04-30T01:19:47.896Z,9.70
2017-04-30T01:20:45.333Z,8.72
2017-04-30T01:21:43.045Z,10.10
2017-04-30T01:22:40.466Z,9.35
2017-04-30T01:23:37.851Z,10.08
2017-04-30T01:24:35.496Z,8.42
2017-04-30T01:25:32.896Z,8.58
2017-04-30T01:26:30.298Z,11.98
2017-04-30T01:27:28.005Z,9.32
2017-04-30T01:28:25.418Z,9.07
2017-04-30T01:29:22.825Z,8.68
2017-04-30T01:30:20.444Z,8.40
2017-04-30T01:31:17.881Z,7.67
2017-04-30T01:32:15.333Z,8.97
2017-04-30T01:33:13.376Z,10.08
2017-04-30T01:34:11.036Z,9.90
2017-04-30T01:35:08.680Z,10.10
2017-04-30T01:36:06.118Z,9.85
2017-04-30T01:37:03.633Z,8.10
2017-04-30T01:38:01.052Z,7.27
2017-04-30T01:38:58.767Z,8.30
2017-04-30T01:39:56.165Z,8.78
2017-04-30T01:40:53.880Z,9.47
2017-04-30T01:41:51.321Z,10.98
2017-04-30T01:42:48.742Z,11.00
2017-04-30T01:43:46.145Z,11.25
2017-04-30T01:44:43.865Z,13.63
2017-04-30T01:45:41.280Z,11.90
2017-04-30T01:46:38.738Z,11.52
2017-04-30T01:47:36.142Z,9.92
2017-04-30T01:48:33.599Z,10.98
2017-04-30T01:49:31.016Z,10.87
2017-04-30T01:50:28.703Z,9.98
2017-04-30T01:51:26.129Z,10.23
2017-04-30T01:52:24.009Z,10.52
2017-04-30T01:53:21.415Z,9.55
2017-04-30T01:54:18.850Z,9.82
2017-04-30T01:55:16.245Z,8.70
2017-04-30T01:56:13.909Z,7.97
2017-04-30T01:57:11.293Z,7.75
2017-04-30T01:58:08.697Z,7.98
2017-04-30T01:59:06.104Z,8.82
2017-04-30T02:00:03.529Z,7.90
2017-04-30T02:01:00.980Z,9.37
2017-04-30T02:01:59.069Z,8.90
2017-04-30T02:02:56.522Z,7.97
2017-04-30T02:03:53.906Z,7.65
2017-04-30T02:04:51.325Z,6.55
2017-04-30T02:05:48.741Z,7.57
2017-04-30T02:06:46.454Z,8.40
2017-04-30T02:07:44.173Z,7.22
2017-04-30T02:08:41.578Z,7.05
2017-04-30T02:09:39.017Z,7.28
2017-04-30T02:10:36.437Z,7.57
2017-04-30T02:11:33.904Z,7.80
2017-04-30T02:12:31.317Z,7.77
2017-04-30T02:13:28.990Z,7.27
2017-04-30T02:14:26.941Z,6.78
2017-04-30T02:15:24.590Z,7.18
2017-04-30T02:16:22.005Z,6.73
2017-04-30T02:17:19.417Z,6.55
2017-04-30T02:18:16.846Z,6.85
2017-04-30T02:19:14.799Z,7.48
2017-04-30T02:20:12.510Z,6.07
2017-04-30T02:21:09.907Z,6.80
2017-04-30T02:22:07.318Z,5.62
2017-04-30T02:23:04.742Z,5.93
2017-04-30T02:24:02.144Z,6.05
2017-04-30T02:24:59.836Z,6.78
2017-04-30T02:25:57.224Z,5.77
2017-04-30T02:26:54.917Z,6.47
2017-04-30T02:27:52.346Z,5.87
2017-04-30T02:28:49.776Z,5.87
2017-04-30T02:29:47.177Z,5.77
2017-04-30T02:30:44.855Z,5.12
2017-04-30T02:31:42.666Z,5.85
2017-04-30T02:32:40.313Z,5.42
2017-04-30T02:33:37.724Z,5.47
2017-04-30T02:34:35.193Z,6.35
2017-04-30T02:35:32.858Z,6.08
2017-04-30T02:36:30.532Z,5.22
2017-04-30T02:37:27.943Z,5.25
2017-04-30T02:38:25.357Z,5.70
2017-04-30T02:39:22.762Z,5.37
2017-04-30T02:40:20.557Z,6.30
2017-04-30T02:41:18.004Z,5.72
2017-04-30T02:42:15.700Z,5.00
2017-04-30T02:43:13.092Z,5.70
2017-04-30T02:44:10.541Z,6.38
2017-04-30T02:45:07.944Z,5.22
2017-04-30T02:46:05.352Z,5.35
2017-04-30T02:47:02.813Z,5.57
2017-04-30T02:48:01.594Z,6.05
2017-04-30T02:48:59.257Z,5.22
2017-04-30T02:49:56.666Z,5.92
2017-04-30T02:50:54.313Z,6.37
2017-04-30T02:51:51.721Z,5.63
2017-04-30T02:52:49.122Z,6.20
2017-04-30T02:53:46.818Z,6.27
2017-04-30T02:54:44.231Z,6.50
2017-04-30T02:55:41.638Z,6.75
2017-04-30T02:56:39.288Z,6.47
2017-04-30T02:57:36.744Z,6.03
2017-04-30T02:58:34.163Z,6.95
2017-04-30T02:59:31.844Z,7.27
2017-04-30T03:00:29.259Z,6.47
2017-04-30T03:01:26.720Z,6.57
2017-04-30T03:02:24.113Z,7.20
2017-04-30T03:03:21.925Z,6.73
2017-04-30T03:04:19.304Z,6.92
2017-04-30T03:05:17.256Z,5.90
2017-04-30T03:06:14.648Z,6.07
2017-04-30T03:07:12.049Z,6.60
2017-04-30T03:08:09.436Z,6.45
2017-04-30T03:09:06.841Z,5.65
2017-04-30T03:10:04.318Z,5.90
2017-04-30T03:11:02.450Z,5.38
2017-04-30T03:11:59.914Z,6.10
2017-04-30T03:12:57.338Z,6.22
2017-04-30T03:13:54.824Z,6.17
2017-04-30T03:14:52.630Z,6.38
2017-04-30T03:15:50.032Z,6.10
2017-04-30T03:16:47.722Z,6.05
2017-04-30T03:17:45.140Z,6.22
2017-04-30T03:18:42.543Z,4.73
2017-04-30T03:19:39.946Z,5.97
2017-04-30T03:20:37.368Z,5.77
2017-04-30T03:21:34.765Z,5.63
2017-04-30T03:22:32.523Z,5.43
2017-04-30T03:23:29.917Z,5.05
2017-04-30T03:24:27.318Z,5.87
2017-04-30T03:25:24.757Z,5.83
2017-04-30T03:26:22.157Z,5.70
2017-04-30T03:27:19.810Z,5.57
2017-04-30T03:28:17.494Z,5.53
2017-04-30T03:29:14.893Z,4.58
2017-04-30T03:30:12.313Z,6.22
2017-04-30T03:31:09.687Z,6.35
2017-04-30T03:32:07.102Z,5.83
2017-04-30T03:33:04.505Z,5.73
2017-04-30T03:34:02.188Z,7.55
2017-04-30T03:34:59.578Z,6.42
2017-04-30T03:35:56.976Z,5.92
2017-04-30T03:36:56.392Z,6.23
2017-04-30T03:37:59.982Z,6.18
2017-04-30T03:39:03.223Z,5.48
2017-04-30T03:40:06.853Z,5.72
2017-04-30T03:41:09.932Z,4.72
2017-04-30T03:42:12.950Z,6.02
2017-04-30T03:43:16.311Z,5.37
2017-04-30T03:44:19.521Z,5.62
2017-04-30T03:45:23.033Z,5.38
2017-04-30T03:46:25.803Z,5.12
2017-04-30T03:47:28.654Z,5.38
2017-04-30T03:48:31.488Z,5.00
2017-04-30T03:49:34.753Z,4.92
2017-04-30T03:50:37.990Z,5.33
2017-04-30T03:51:40.828Z,5.50
2017-04-30T03:52:43.810Z,5.87
2017-04-30T03:53:46.809Z,5.38
2017-04-30T03:54:50.136Z,5.18
2017-04-30T03:55:53.501Z,4.93
2017-04-30T03:56:56.737Z,5.60
2017-04-30T03:57:59.540Z,5.32
2017-04-30T03:59:02.389Z,5.70
2017-04-30T04:00:05.516Z,5.58
2017-04-30T04:01:08.445Z,4.77
2017-04-30T04:02:11.462Z,5.98
2017-04-30T04:03:14.397Z,5.30
2017-04-30T04:04:17.389Z,8.47
2017-04-30T04:05:20.712Z,5.43
2017-04-30T04:06:24.015Z,5.50
2017-04-30T04:07:27.189Z,5.60
2017-04-30T04:08:30.536Z,5.35
2017-04-30T04:09:33.365Z,5.12
2017-04-30T04:10:36.618Z,5.52
2017-04-30T04:11:39.564Z,5.72
2017-04-30T04:12:42.361Z,4.43
2017-04-30T04:13:45.290Z,5.12
2017-04-30T04:14:48.750Z,4.70
2017-04-30T04:15:52.261Z,5.02
2017-04-30T04:16:55.113Z,5.32
2017-04-30T04:17:58.191Z,4.52
2017-04-30T04:19:01.195Z,5.12
2017-04-30T04:20:05.136Z,4.62
2017-04-30T04:21:08.326Z,5.40
2017-04-30T04:22:11.586Z,4.35
2017-04-30T04:23:14.429Z,4.45
2017-04-30T04:24:17.398Z,4.20
2017-04-30T04:25:20.276Z,4.60
2017-04-30T04:26:23.419Z,4.15
2017-04-30T04:27:26.274Z,4.67
2017-04-30T04:28:29.112Z,4.77
2017-04-30T04:29:32.368Z,4.28
2017-04-30T04:30:35.312Z,4.37
2017-04-30T04:31:38.423Z,4.58
2017-04-30T04:32:41.208Z,4.83
2017-04-30T04:33:44.164Z,4.02
2017-04-30T04:34:47.091Z,3.52
2017-04-30T04:35:50.116Z,4.85
2017-04-30T04:36:53.749Z,4.08
2017-04-30T04:37:56.863Z,3.57
2017-04-30T04:39:01.102Z,4.40
2017-04-30T04:40:04.088Z,4.10
2017-04-30T04:41:06.988Z,4.18
2017-04-30T04:42:10.324Z,4.15
2017-04-30T04:43:13.485Z,4.87
2017-04-30T04:44:16.358Z,3.50
2017-04-30T04:45:19.152Z,3.80
2017-04-30T04:46:22.080Z,3.33
2017-04-30T04:47:25.333Z,4.30
2017-04-30T04:48:28.201Z,4.10
2017-04-30T04:49:31.255Z,4.12
2017-04-30T04:50:34.149Z,3.55
2017-04-30T04:51:37.082Z,3.63
2017-04-30T04:52:40.281Z,3.97
2017-04-30T04:53:43.137Z,4.18
2017-04-30T04:54:45.934Z,3.68
2017-04-30T04:55:49.082Z,3.95
2017-04-30T04:56:51.918Z,3.80
2017-04-30T04:57:55.490Z,3.98
2017-04-30T04:58:58.334Z,3.93
2017-04-30T05:00:01.305Z,4.10
2017-04-30T05:01:04.630Z,4.12
2017-04-30T05:02:08.068Z,5.20
2017-04-30T05:03:11.921Z,3.97
2017-04-30T05:04:15.224Z,4.02
2017-04-30T05:05:18.084Z,3.82
2017-04-30T05:06:21.081Z,3.90
2017-04-30T05:07:24.352Z,3.95
2017-04-30T05:08:27.615Z,3.35
2017-04-30T05:09:30.810Z,3.93
2017-04-30T05:10:33.799Z,3.97
2017-04-30T05:11:37.096Z,4.20
2017-04-30T05:12:39.935Z,5.15
2017-04-30T05:13:43.271Z,3.90
2017-04-30T05:14:46.451Z,4.25
2017-04-30T05:15:49.355Z,4.75
2017-04-30T05:16:52.361Z,4.08
2017-04-30T05:17:56.671Z,4.17
2017-04-30T05:18:59.857Z,4.42
2017-04-30T05:20:02.928Z,4.77
2017-04-30T05:21:06.512Z,4.65
2017-04-30T05:22:09.313Z,4.33
2017-04-30T05:23:12.256Z,4.15
2017-04-30T05:24:15.549Z,4.47
2017-04-30T05:25:18.337Z,4.90
2017-04-30T05:26:21.201Z,4.75
2017-04-30T05:27:24.472Z,4.38
2017-04-30T05:28:27.337Z,3.77
2017-04-30T05:29:30.966Z,4.03
2017-04-30T05:30:33.854Z,4.37
2017-04-30T05:31:37.209Z,3.80
2017-04-30T05:32:40.098Z,4.80
2017-04-30T05:33:43.170Z,3.90
2017-04-30T05:34:46.954Z,3.82
2017-04-30T05:35:50.009Z,4.82
2017-04-30T05:36:53.379Z,4.27
2017-04-30T05:37:56.608Z,4.67
2017-04-30T05:38:59.742Z,3.97
2017-04-30T05:40:03.369Z,4.00
2017-04-30T05:41:06.725Z,3.40
2017-04-30T05:42:09.761Z,4.05
2017-04-30T05:43:13.068Z,4.93
2017-04-30T05:44:15.959Z,3.87
2017-04-30T05:45:19.285Z,3.43
2017-04-30T05:46:22.143Z,3.92
2017-04-30T05:47:26.324Z,4.02
2017-04-30T05:48:29.152Z,4.12
2017-04-30T05:49:32.470Z,4.37
2017-04-30T05:50:35.559Z,4.07
2017-04-30T05:51:39.017Z,3.83
2017-04-30T05:52:41.800Z,3.78
2017-04-30T05:53:44.785Z,4.10
2017-04-30T05:54:47.869Z,4.47
2017-04-30T05:55:52.861Z,3.93
2017-04-30T05:56:56.748Z,4.05
2017-04-30T05:57:59.769Z,3.95
2017-04-30T05:59:03.022Z,4.43
2017-04-30T06:00:05.872Z,4.10
2017-04-30T06:01:09.486Z,4.13
2017-04-30T06:02:12.452Z,4.23
2017-04-30T06:03:15.473Z,4.03
2017-04-30T06:04:18.362Z,3.35
2017-04-30T06:05:21.414Z,4.32
2017-04-30T06:06:24.600Z,3.88
2017-04-30T06:07:27.540Z,3.93
2017-04-30T06:08:30.803Z,4.48
2017-04-30T06:09:34.053Z,3.40
2017-04-30T06:10:37.054Z,4.32
2017-04-30T06:11:40.389Z,4.45
2017-04-30T06:12:43.607Z,4.17
2017-04-30T06:13:46.469Z,3.17
2017-04-30T06:14:50.019Z,3.98
2017-04-30T06:15:52.925Z,4.03
2017-04-30T06:16:56.053Z,4.05
2017-04-30T06:17:59.256Z,4.10
2017-04-30T06:19:02.303Z,4.95
2017-04-30T06:20:05.609Z,4.03
2017-04-30T06:21:08.779Z,4.27
2017-04-30T06:22:12.031Z,4.17
2017-04-30T06:23:14.818Z,4.07
2017-04-30T06:24:17.793Z,4.75
2017-04-30T06:25:21.113Z,5.53
2017-04-30T06:26:23.946Z,3.98
2017-04-30T06:27:27.342Z,4.83
2017-04-30T06:28:30.195Z,3.95
2017-04-30T06:29:33.528Z,4.58
2017-04-30T06:30:36.659Z,4.05
2017-04-30T06:31:39.699Z,4.63
2017-04-30T06:32:43.602Z,5.18
2017-04-30T06:33:47.066Z,4.40
2017-04-30T06:34:49.889Z,4.35
2017-04-30T06:35:52.823Z,5.28
2017-04-30T06:36:56.255Z,4.53
2017-04-30T06:37:59.402Z,4.00
2017-04-30T06:39:02.282Z,4.85
2017-04-30T06:40:05.394Z,5.55
2017-04-30T06:41:08.365Z,4.78
2017-04-30T06:42:11.410Z,5.22
2017-04-30T06:43:15.174Z,4.88
2017-04-30T06:44:18.073Z,4.80
2017-04-30T06:45:21.021Z,5.50
2017-04-30T06:46:24.374Z,4.92
2017-04-30T06:47:27.266Z,4.53
2017-04-30T06:48:30.884Z,4.50
2017-04-30T06:49:34.409Z,5.52
2017-04-30T06:50:37.323Z,5.62
2017-04-30T06:51:40.529Z,5.63
2017-04-30T06:52:43.790Z,5.20
2017-04-30T06:53:47.729Z,5.63
2017-04-30T06:54:50.720Z,5.37
2017-04-30T06:55:53.752Z,5.50
2017-04-30T06:56:56.622Z,4.95
2017-04-30T06:57:59.844Z,6.02
2017-04-30T06:59:03.333Z,5.90
2017-04-30T07:00:06.454Z,5.63
2017-04-30T07:01:09.881Z,5.73
2017-04-30T07:02:12.895Z,5.80
2017-04-30T07:03:16.216Z,5.83
2017-04-30T07:04:19.581Z,6.42
2017-04-30T07:05:22.875Z,6.80
2017-04-30T07:06:26.060Z,6.25
2017-04-30T07:07:28.855Z,7.03
2017-04-30T07:08:31.810Z,6.38
2017-04-30T07:09:34.911Z,6.42
2017-04-30T07:10:37.736Z,6.38
2017-04-30T07:11:40.763Z,6.83
2017-04-30T07:12:43.765Z,6.17
2017-04-30T07:13:47.519Z,5.48
2017-04-30T07:14:50.907Z,6.43
2017-04-30T07:15:53.789Z,6.30
2017-04-30T07:16:56.574Z,5.93
2017-04-30T07:18:00.823Z,6.33
2017-04-30T07:19:03.726Z,6.02
2017-04-30T07:20:07.067Z,6.18
2017-04-30T07:21:09.929Z,6.40
2017-04-30T07:23:14.098Z,6.67
2017-04-30T07:24:17.980Z,6.07
2017-04-30T07:25:21.065Z,5.80
2017-04-30T07:26:24.930Z,6.20
2017-04-30T07:27:28.050Z,6.40
2017-04-30T07:28:31.135Z,6.37
2017-04-30T07:29:34.510Z,6.42
2017-04-30T07:30:37.612Z,6.88
2017-04-30T07:31:40.489Z,7.45
2017-04-30T07:32:43.435Z,6.87
2017-04-30T07:33:46.751Z,6.85
2017-04-30T07:34:49.608Z,6.55
2017-04-30T07:35:52.914Z,6.33
2017-04-30T07:36:55.800Z,6.90
2017-04-30T07:37:58.585Z,6.58
2017-04-30T07:39:01.550Z,6.72
2017-04-30T07:40:04.569Z,5.70
2017-04-30T07:41:07.800Z,7.82
2017-04-30T07:42:10.616Z,6.82
2017-04-30T07:43:08.016Z,6.90
2017-04-30T07:44:06.414Z,6.83
2017-04-30T07:45:03.892Z,6.38
2017-04-30T07:46:01.670Z,6.90
2017-04-30T07:46:59.369Z,6.25
2017-04-30T07:47:56.770Z,6.93
2017-04-30T07:48:54.483Z,5.87
2017-04-30T07:49:52.212Z,6.90
2017-04-30T07:50:49.613Z,6.80
2017-04-30T07:51:47.767Z,6.87
2017-04-30T07:52:45.475Z,7.03
2017-04-30T07:53:42.896Z,6.75
2017-04-30T07:54:40.305Z,6.60
2017-04-30T07:55:37.742Z,6.83
2017-04-30T07:56:36.322Z,6.98
2017-04-30T07:57:33.752Z,7.48
2017-04-30T07:58:31.450Z,8.00
2017-04-30T07:59:28.857Z,7.57
2017-04-30T08:00:26.255Z,8.02
2017-04-30T08:01:23.655Z,7.40
2017-04-30T08:02:21.085Z,7.90
2017-04-30T08:03:18.477Z,7.60
2017-04-30T08:04:16.396Z,7.65
2017-04-30T08:05:13.826Z,7.02
2017-04-30T08:06:11.225Z,7.13
2017-04-30T08:07:09.017Z,6.90
2017-04-30T08:08:07.242Z,7.00
2017-04-30T08:09:04.694Z,7.47
2017-04-30T08:10:02.393Z,8.18
2017-04-30T08:10:59.828Z,7.47
2017-04-30T08:11:57.235Z,8.42
2017-04-30T08:12:54.662Z,7.63
2017-04-30T08:13:52.062Z,6.68
2017-04-30T08:14:49.465Z,7.30
2017-04-30T08:15:47.192Z,7.87
2017-04-30T08:16:44.584Z,7.47
2017-04-30T08:17:42.228Z,8.18
2017-04-30T08:18:39.649Z,6.72
2017-04-30T08:19:37.053Z,8.58
2017-04-30T08:20:34.467Z,7.85
2017-04-30T08:21:32.181Z,7.47
2017-04-30T08:22:29.834Z,7.17
2017-04-30T08:23:27.494Z,8.20
2017-04-30T08:24:24.892Z,7.63
2017-04-30T08:25:22.291Z,8.15
2017-04-30T08:26:19.714Z,8.47
2017-04-30T08:27:17.385Z,8.03
2017-04-30T08:28:14.801Z,8.28
2017-04-30T08:29:12.209Z,8.35
2017-04-30T08:30:09.614Z,8.05
2017-04-30T08:31:07.023Z,8.95
2017-04-30T08:32:05.088Z,8.60
2017-04-30T08:33:03.109Z,7.72
2017-04-30T08:34:00.758Z,9.18
2017-04-30T08:34:58.140Z,8.08
2017-04-30T08:35:55.557Z,9.32
2017-04-30T08:36:53.185Z,8.45
2017-04-30T08:37:50.586Z,9.05
2017-04-30T08:38:48.259Z,8.83
2017-04-30T08:39:45.693Z,8.60
2017-04-30T08:40:43.137Z,10.15
2017-04-30T08:41:40.527Z,8.52
2017-04-30T08:42:38.194Z,9.63
2017-04-30T08:43:35.599Z,9.17
2017-04-30T08:44:33.538Z,9.72
2017-04-30T08:45:30.945Z,9.50
2017-04-30T08:46:28.601Z,9.58
2017-04-30T08:47:26.030Z,9.95
2017-04-30T08:48:23.442Z,9.95
2017-04-30T08:49:20.846Z,9.73
2017-04-30T08:50:18.546Z,8.73
2017-04-30T08:51:15.954Z,10.57
2017-04-30T08:52:13.366Z,9.83
2017-04-30T08:53:11.021Z,9.92
2017-04-30T08:54:08.418Z,9.55
2017-04-30T08:55:06.910Z,9.78
2017-04-30T08:56:04.594Z,10.10
2017-04-30T08:57:02.025Z,10.78
2017-04-30T08:57:59.460Z,9.60
2017-04-30T08:58:56.894Z,10.37
2017-04-30T08:59:54.327Z,10.63
2017-04-30T09:00:51.752Z,11.30
2017-04-30T09:01:49.437Z,11.40
2017-04-30T09:02:47.124Z,9.38
2017-04-30T09:03:44.550Z,9.00
2017-04-30T09:04:41.999Z,10.13
2017-04-30T09:05:39.426Z,9.02
2017-04-30T09:06:36.828Z,9.55
2017-04-30T09:07:34.516Z,9.40
2017-04-30T09:08:32.314Z,9.85
2017-04-30T09:09:29.713Z,11.33
2017-04-30T09:10:27.136Z,11.50
2017-04-30T09:11:24.593Z,10.67
2017-04-30T09:12:22.041Z,10.42
2017-04-30T09:13:19.737Z,10.92
2017-04-30T09:14:17.158Z,9.30
2017-04-30T09:15:14.784Z,9.85
2017-04-30T09:16:12.204Z,10.25
2017-04-30T09:17:09.624Z,10.92
2017-04-30T09:18:07.045Z,9.85
2017-04-30T09:19:04.761Z,10.68
2017-04-30T09:20:02.145Z,8.80
2017-04-30T09:20:59.559Z,9.42
2017-04-30T09:21:56.984Z,10.92
2017-04-30T09:22:54.385Z,9.65
2017-04-30T09:23:52.205Z,9.68
2017-04-30T09:24:50.022Z,10.35
2017-04-30T09:25:47.670Z,10.55
2017-04-30T09:26:45.056Z,10.77
2017-04-30T09:27:42.465Z,9.92
2017-04-30T09:28:39.930Z,10.85
2017-04-30T09:29:38.657Z,11.07
2017-04-30T09:30:36.952Z,11.37
2017-04-30T09:31:34.853Z,11.32
2017-04-30T09:32:32.243Z,9.27
2017-04-30T09:33:29.674Z,9.68
2017-04-30T09:34:28.046Z,10.78
2017-04-30T09:35:25.465Z,10.73
2017-04-30T09:36:23.175Z,11.33
2017-04-30T09:37:20.582Z,10.72
2017-04-30T09:38:18.347Z,10.27
2017-04-30T09:39:16.074Z,10.02
2017-04-30T09:40:13.495Z,10.27
2017-04-30T09:41:10.909Z,10.90
2017-04-30T09:42:08.602Z,11.50
2017-04-30T09:43:06.011Z,9.95
2017-04-30T09:44:03.788Z,10.55
2017-04-30T09:45:01.214Z,11.83
2017-04-30T09:45:59.065Z,11.80
2017-04-30T09:46:56.730Z,10.22
2017-04-30T09:47:54.657Z,10.00
2017-04-30T09:48:52.338Z,9.47
2017-04-30T09:49:49.745Z,11.53
2017-04-30T09:50:47.422Z,10.50
2017-04-30T09:51:44.845Z,10.95
2017-04-30T09:52:42.265Z,10.75
2017-04-30T09:53:39.955Z,9.32
2017-04-30T09:54:37.409Z,10.92
2017-04-30T09:55:34.839Z,9.65
2017-04-30T09:56:32.249Z,11.62
2017-04-30T09:57:29.681Z,11.42
2017-04-30T09:58:27.114Z,11.48
2017-04-30T09:59:25.142Z,10.00
2017-04-30T10:00:23.489Z,10.80
2017-04-30T10:01:21.567Z,10.80
2017-04-30T10:02:18.990Z,10.23
2017-04-30T10:03:16.418Z,10.32
2017-04-30T10:04:13.857Z,11.32
2017-04-30T10:05:11.545Z,9.67
2017-04-30T10:06:08.948Z,9.57
2017-04-30T10:07:06.352Z,10.73
2017-04-30T10:08:04.414Z,10.00
2017-04-30T10:09:01.848Z,11.07
2017-04-30T10:09:59.253Z,10.08
2017-04-30T10:10:56.944Z,10.37
2017-04-30T10:11:54.370Z,10.23
2017-04-30T10:12:52.034Z,10.85
2017-04-30T10:13:49.539Z,10.75
2017-04-30T10:14:46.935Z,11.47
2017-04-30T10:15:45.456Z,10.42
2017-04-30T10:16:43.136Z,9.70
2017-04-30T10:17:40.986Z,10.40
2017-04-30T10:18:38.399Z,10.85
2017-04-30T10:19:35.829Z,11.20
2017-04-30T10:20:33.244Z,10.05
2017-04-30T10:21:30.683Z,11.23
2017-04-30T10:22:28.344Z,9.93
2017-04-30T10:23:26.518Z,10.82
2017-04-30T10:24:23.939Z,11.20
2017-04-30T10:25:21.424Z,10.45
2017-04-30T10:26:19.096Z,11.38
2017-04-30T10:27:16.518Z,10.60
2017-04-30T10:28:14.279Z,10.25
2017-04-30T10:29:12.664Z,10.30
2017-04-30T10:30:10.401Z,10.68
2017-04-30T10:31:08.792Z,11.28
2017-04-30T10:32:06.218Z,10.30
2017-04-30T10:33:03.888Z,12.97
2017-04-30T10:34:01.977Z,10.90
2017-04-30T10:34:59.437Z,9.82
2017-04-30T10:35:56.875Z,10.63
2017-04-30T10:36:54.388Z,11.10
2017-04-30T10:37:51.817Z,10.93
2017-04-30T10:38:49.244Z,10.82
2017-04-30T10:39:46.933Z,11.33
2017-04-30T10:40:44.653Z,10.43
2017-04-30T10:41:42.055Z,10.90
2017-04-30T10:42:39.618Z,11.83
2017-04-30T10:43:37.270Z,10.90
2017-04-30T10:44:34.690Z,12.05
2017-04-30T10:45:33.257Z,10.95
2017-04-30T10:46:30.941Z,9.55
2017-04-30T10:47:28.374Z,10.17
2017-04-30T10:48:26.037Z,11.38
2017-04-30T10:49:23.841Z,11.37
2017-04-30T10:50:21.262Z,11.45
2017-04-30T10:51:19.307Z,11.92
2017-04-30T10:52:16.725Z,10.45
2017-04-30T10:53:14.160Z,10.13
2017-04-30T10:54:11.827Z,10.65
2017-04-30T10:55:09.224Z,10.92
2017-04-30T10:56:06.849Z,11.07
2017-04-30T10:57:04.556Z,10.05
2017-04-30T10:58:01.959Z,10.45
2017-04-30T10:58:59.689Z,11.13
2017-04-30T10:59:58.021Z,9.87
2017-04-30T11:00:55.430Z,11.10
2017-04-30T11:01:52.836Z,10.37
2017-04-30T11:02:50.578Z,10.32
2017-04-30T11:03:48.003Z,9.92
2017-04-30T11:04:45.416Z,10.18
2017-04-30T11:05:42.850Z,10.30
2017-04-30T11:06:40.809Z,10.25
2017-04-30T11:07:38.217Z,10.75
2017-04-30T11:08:36.116Z,10.47
2017-04-30T11:09:33.803Z,10.97
2017-04-30T11:10:31.245Z,11.32
2017-04-30T11:11:30.071Z,9.97
2017-04-30T11:12:28.058Z,10.38
2017-04-30T11:13:25.486Z,11.13
2017-04-30T11:14:23.223Z,10.75
2017-04-30T11:15:20.631Z,11.47
2017-04-30T11:16:18.021Z,10.53
2017-04-30T11:17:15.729Z,10.32
2017-04-30T11:18:13.464Z,9.60
2017-04-30T11:19:11.251Z,10.82
2017-04-30T11:20:08.956Z,10.30
2017-04-30T11:21:06.616Z,11.00
2017-04-30T11:22:04.016Z,10.62
2017-04-30T11:23:02.309Z,10.62
2017-04-30T11:23:59.692Z,9.42
2017-04-30T11:24:57.219Z,9.88
2017-04-30T11:25:54.918Z,10.73
2017-04-30T11:26:52.309Z,9.92
2017-04-30T11:27:49.736Z,10.25
2017-04-30T11:28:47.170Z,9.77
2017-04-30T11:29:44.558Z,9.57
2017-04-30T11:30:42.213Z,10.12
2017-04-30T11:31:40.534Z,9.72
2017-04-30T11:32:37.929Z,9.22
2017-04-30T11:33:35.329Z,9.72
2017-04-30T11:34:32.733Z,9.03
2017-04-30T11:35:30.169Z,9.02
2017-04-30T11:36:28.430Z,9.40
2017-04-30T11:37:26.105Z,8.92
2017-04-30T11:38:23.563Z,9.45
2017-04-30T11:39:20.985Z,9.17
2017-04-30T11:40:19.103Z,9.65
2017-04-30T11:41:16.765Z,9.75
2017-04-30T11:42:14.186Z,9.87
2017-04-30T11:43:11.902Z,10.25
2017-04-30T11:44:09.343Z,9.18
2017-04-30T11:45:06.744Z,9.75
2017-04-30T11:46:04.157Z,9.42
2017-04-30T11:47:01.616Z,8.67
2017-04-30T11:47:59.037Z,8.43
2017-04-30T11:48:56.717Z,8.62
2017-04-30T11:49:54.503Z,9.40
2017-04-30T11:50:51.892Z,8.62
2017-04-30T11:51:49.532Z,8.88
2017-04-30T11:52:47.161Z,8.73
2017-04-30T11:53:44.564Z,9.87
2017-04-30T11:54:42.225Z,8.95
2017-04-30T11:55:39.622Z,9.23
2017-04-30T11:56:37.020Z,8.63
2017-04-30T11:57:34.435Z,8.23
2017-04-30T11:58:31.849Z,8.77
2017-04-30T11:59:29.267Z,8.47
2017-04-30T12:00:26.961Z,9.10
2017-04-30T12:01:24.609Z,8.97
2017-04-30T12:02:22.765Z,8.95
2017-04-30T12:03:20.152Z,9.10
2017-04-30T12:04:17.859Z,8.35
2017-04-30T12:05:15.556Z,8.23
2017-04-30T12:06:13.242Z,7.98
2017-04-30T12:07:10.640Z,7.95
2017-04-30T12:08:08.059Z,7.30
2017-04-30T12:09:05.482Z,7.58
2017-04-30T12:10:02.885Z,9.00
2017-04-30T12:11:00.290Z,6.58
2017-04-30T12:11:58.392Z,8.47
2017-04-30T12:12:55.797Z,8.13
2017-04-30T12:13:53.240Z,7.80
2017-04-30T12:14:50.988Z,8.02
2017-04-30T12:15:48.938Z,7.60
2017-04-30T12:16:46.346Z,7.88
2017-04-30T12:17:44.564Z,8.50
2017-04-30T12:18:42.196Z,8.32
2017-04-30T12:19:39.976Z,8.40
2017-04-30T12:20:37.884Z,7.63
2017-04-30T12:21:35.288Z,8.47
2017-04-30T12:22:32.695Z,8.35
2017-04-30T12:23:30.407Z,8.92
2017-04-30T12:24:27.817Z,7.48
2017-04-30T12:25:25.491Z,8.93
2017-04-30T12:26:23.126Z,9.32
2017-04-30T12:27:20.530Z,8.07
2017-04-30T12:28:17.930Z,8.12
2017-04-30T12:29:16.493Z,8.47
2017-04-30T12:30:14.119Z,7.58
2017-04-30T12:31:11.802Z,8.93
2017-04-30T12:32:09.192Z,8.23
2017-04-30T12:33:06.822Z,7.67
2017-04-30T12:34:04.225Z,7.40
2017-04-30T12:35:01.915Z,8.08
2017-04-30T12:35:59.350Z,7.63
2017-04-30T12:36:56.749Z,7.93
2017-04-30T12:37:54.154Z,7.97
2017-04-30T12:38:51.582Z,7.68
2017-04-30T12:39:49.097Z,7.80
2017-04-30T12:40:46.781Z,6.92
2017-04-30T12:41:44.201Z,7.25
2017-04-30T12:42:41.851Z,7.57
2017-04-30T12:43:39.241Z,8.08
2017-04-30T12:44:36.624Z,7.30
2017-04-30T12:45:34.270Z,7.08
2017-04-30T12:46:31.932Z,6.82
2017-04-30T12:47:29.361Z,7.82
2017-04-30T12:48:26.751Z,7.02
2017-04-30T12:49:25.717Z,7.22
2017-04-30T12:50:23.104Z,6.90
2017-04-30T12:51:20.505Z,7.28
2017-04-30T12:52:18.238Z,6.45
2017-04-30T12:53:15.926Z,7.75
2017-04-30T12:54:13.728Z,6.95
2017-04-30T12:55:11.136Z,6.02
2017-04-30T12:56:08.544Z,7.80
2017-04-30T12:57:06.938Z,7.05
2017-04-30T12:58:05.321Z,7.10
2017-04-30T12:59:02.864Z,8.10
2017-04-30T13:00:00.265Z,6.15
2017-04-30T13:00:57.693Z,7.40
2017-04-30T13:01:55.107Z,7.23
2017-04-30T13:02:52.526Z,6.80
2017-04-30T13:03:50.640Z,7.02